Parkhill, Pennsylvania
Current Conditions -  °F | °C
As of 6:54 AM on Thursday 23 Oct 2014 (Local Time) from KJST Reporting Station
Overcast Overcast  
Wind Chill: 35°   Ceiling: 700
Heat Index: 42°   Visibility: 10mi
Dew Point: 38°   Wind: 13mph
Humidity: 85%   Direction: 310°NW
Pressure: 30.05"   Gusts: NA
Location:  40.36°N, 78.87°W
Report Text: KJST 231054Z AUTO 31011KT 10SM OVC007 06/03 A3005 RMK AO2 SLP188 T00560033
Loading
Personal Weather Stations






























Interactive Weather Map
Tropical Storm Tracking
New forecast layout! Learn more

10-Day Weather Forecast

Advertisements
Track Severe Weather on mobile